createdAt,value
2018-12-22T00:02:13.938Z,12.08
2018-12-22T00:04:42.295Z,12.04
2018-12-22T00:07:10.639Z,11.68
2018-12-22T00:09:38.998Z,11.94
2018-12-22T00:12:07.443Z,11.99
2018-12-22T00:14:35.773Z,12.09
2018-12-22T00:17:04.432Z,12.06
2018-12-22T00:19:32.840Z,11.96
2018-12-22T00:22:01.203Z,12.20
2018-12-22T00:24:29.600Z,12.07
2018-12-22T00:26:57.936Z,11.98
2018-12-22T00:29:26.383Z,11.95
2018-12-22T00:31:54.852Z,12.01
2018-12-22T00:34:23.192Z,11.87
2018-12-22T00:36:51.574Z,11.93
2018-12-22T00:39:19.963Z,12.11
2018-12-22T00:41:48.299Z,12.11
2018-12-22T00:44:16.768Z,12.08
2018-12-22T00:46:45.216Z,12.03
2018-12-22T00:49:13.573Z,12.01
2018-12-22T00:51:42.027Z,12.18
2018-12-22T00:54:10.364Z,12.22
2018-12-22T00:56:38.703Z,12.09
2018-12-22T00:59:07.057Z,12.13
2018-12-22T01:01:35.411Z,11.85
2018-12-22T01:04:03.869Z,11.95
2018-12-22T01:06:32.284Z,12.19
2018-12-22T01:09:00.692Z,12.33
2018-12-22T01:11:29.165Z,12.05
2018-12-22T01:13:57.527Z,12.20
2018-12-22T01:16:25.882Z,12.12
2018-12-22T01:18:54.250Z,12.08
2018-12-22T01:21:22.671Z,12.13
2018-12-22T01:23:51.091Z,12.12
2018-12-22T01:26:19.438Z,12.13
2018-12-22T01:28:47.781Z,12.07
2018-12-22T01:31:16.176Z,12.02
2018-12-22T01:33:44.540Z,12.14
2018-12-22T01:36:12.894Z,12.21
2018-12-22T01:38:41.318Z,12.19
2018-12-22T01:41:10.682Z,12.02
2018-12-22T01:43:39.135Z,12.11
2018-12-22T01:46:07.475Z,11.97
2018-12-22T01:48:36.310Z,11.92
2018-12-22T01:51:04.910Z,11.94
2018-12-22T01:53:33.414Z,11.77
2018-12-22T01:56:01.766Z,12.13
2018-12-22T01:58:30.098Z,12.16
2018-12-22T02:00:58.437Z,12.16
2018-12-22T02:03:26.835Z,11.99
2018-12-22T02:05:55.215Z,12.02
2018-12-22T02:08:23.567Z,12.07
2018-12-22T02:10:51.959Z,11.94
2018-12-22T02:13:20.339Z,11.99
2018-12-22T02:15:48.716Z,11.92
2018-12-22T02:18:17.080Z,11.97
2018-12-22T02:20:45.402Z,11.75
2018-12-22T02:23:13.737Z,12.01
2018-12-22T02:25:42.071Z,11.92
2018-12-22T02:28:10.490Z,11.70
2018-12-22T02:30:38.824Z,11.70
2018-12-22T02:33:07.155Z,11.68
2018-12-22T02:35:35.511Z,11.77
2018-12-22T02:38:03.845Z,11.76
2018-12-22T02:40:32.163Z,11.84
2018-12-22T02:43:00.575Z,11.67
2018-12-22T02:45:28.973Z,11.83
2018-12-22T02:47:57.312Z,11.81
2018-12-22T02:50:25.639Z,11.82
2018-12-22T02:52:54.037Z,11.99
2018-12-22T02:55:22.379Z,11.76
2018-12-22T02:57:50.880Z,12.02
2018-12-22T03:00:19.303Z,11.85
2018-12-22T03:02:47.658Z,11.92
2018-12-22T03:05:15.997Z,11.82
2018-12-22T03:07:44.361Z,11.88
2018-12-22T03:10:12.903Z,11.84
2018-12-22T03:12:41.223Z,11.98
2018-12-22T03:15:09.566Z,11.84
2018-12-22T03:17:37.879Z,11.81
2018-12-22T03:20:06.326Z,11.75
2018-12-22T03:22:34.704Z,11.87
2018-12-22T03:25:03.087Z,11.76
2018-12-22T03:27:31.461Z,11.84
2018-12-22T03:29:59.803Z,11.90
2018-12-22T03:32:28.154Z,11.84
2018-12-22T03:34:56.576Z,11.68
2018-12-22T03:37:24.920Z,11.61
2018-12-22T03:39:53.342Z,11.67
2018-12-22T03:42:21.724Z,11.65
2018-12-22T03:44:50.107Z,11.66
2018-12-22T03:47:18.465Z,11.61
2018-12-22T03:49:46.798Z,11.76
2018-12-22T03:52:15.141Z,11.59
2018-12-22T03:54:43.516Z,11.70
2018-12-22T03:57:11.980Z,11.60
2018-12-22T03:59:40.311Z,11.55
2018-12-22T04:02:08.684Z,11.33
2018-12-22T04:04:37.035Z,11.22
2018-12-22T04:07:05.540Z,10.85
2018-12-22T04:09:33.905Z,10.90
2018-12-22T04:12:02.429Z,10.83
2018-12-22T04:14:30.780Z,10.80
2018-12-22T04:16:59.127Z,10.76
2018-12-22T04:19:27.461Z,10.73
2018-12-22T04:21:55.830Z,10.72
2018-12-22T04:24:24.182Z,10.70
2018-12-22T04:26:52.644Z,10.69
2018-12-22T04:29:20.971Z,10.68
2018-12-22T04:31:50.771Z,10.60
2018-12-22T04:34:19.337Z,10.48
2018-12-22T04:36:47.697Z,10.37
2018-12-22T04:39:16.065Z,10.34
2018-12-22T04:41:44.429Z,10.26
2018-12-22T04:44:12.779Z,10.41
2018-12-22T04:46:41.095Z,10.31
2018-12-22T04:49:09.472Z,10.34
2018-12-22T04:51:37.823Z,10.25
2018-12-22T04:54:06.151Z,10.34
2018-12-22T04:56:34.530Z,10.35
2018-12-22T04:59:02.860Z,10.31
2018-12-22T05:01:31.289Z,10.28
2018-12-22T05:03:59.626Z,10.33
2018-12-22T05:06:27.949Z,10.39
2018-12-22T05:08:56.277Z,10.38
2018-12-22T05:11:24.604Z,10.47
2018-12-22T05:13:52.939Z,10.41
2018-12-22T05:16:21.269Z,10.51
2018-12-22T05:18:49.595Z,10.73
2018-12-22T05:21:17.945Z,10.72
2018-12-22T05:23:46.366Z,10.86
2018-12-22T05:26:14.695Z,10.98
2018-12-22T05:28:43.040Z,10.99
2018-12-22T05:31:11.401Z,11.07
2018-12-22T05:33:39.761Z,11.09
2018-12-22T05:36:08.101Z,11.10
2018-12-22T05:38:36.467Z,11.17
2018-12-22T05:41:04.839Z,11.17
2018-12-22T05:43:33.200Z,11.15
2018-12-22T05:46:01.584Z,11.16
2018-12-22T05:48:29.910Z,11.16
2018-12-22T05:50:58.271Z,11.14
2018-12-22T05:53:26.587Z,11.27
2018-12-22T05:55:54.960Z,11.22
2018-12-22T05:58:23.316Z,11.22
2018-12-22T06:00:51.664Z,11.20
2018-12-22T06:03:19.966Z,11.23
2018-12-22T06:05:48.415Z,11.33
2018-12-22T06:08:16.764Z,11.21
2018-12-22T06:10:45.127Z,11.20
2018-12-22T06:13:13.459Z,11.24
2018-12-22T06:15:41.803Z,11.36
2018-12-22T06:18:10.183Z,11.44
2018-12-22T06:20:38.535Z,11.48
2018-12-22T06:23:06.921Z,11.52
2018-12-22T06:25:35.265Z,11.53
2018-12-22T06:28:03.737Z,11.40
2018-12-22T06:30:32.100Z,11.29
2018-12-22T06:33:00.441Z,11.06
2018-12-22T06:35:28.834Z,11.03
2018-12-22T06:37:57.285Z,11.01
2018-12-22T06:40:25.625Z,10.70
2018-12-22T06:42:54.013Z,10.85
2018-12-22T06:45:22.402Z,10.92
2018-12-22T06:47:50.740Z,10.88
2018-12-22T06:50:19.106Z,11.12
2018-12-22T06:52:47.682Z,11.13
2018-12-22T06:55:16.068Z,11.17
2018-12-22T06:57:44.410Z,11.19
2018-12-22T07:00:17.607Z,11.10
2018-12-22T07:02:43.386Z,11.13
2018-12-22T07:05:11.769Z,11.11
2018-12-22T07:07:40.145Z,11.22
2018-12-22T07:10:09.180Z,11.25
2018-12-22T07:12:37.550Z,11.25
2018-12-22T07:15:05.917Z,11.27
2018-12-22T07:17:34.300Z,11.24
2018-12-22T07:20:02.658Z,11.28
2018-12-22T07:22:31.157Z,11.16
2018-12-22T07:24:59.588Z,11.28
2018-12-22T07:27:27.994Z,11.22
2018-12-22T07:29:56.436Z,11.25
2018-12-22T07:32:24.824Z,11.19
2018-12-22T07:34:55.076Z,11.03
2018-12-22T07:37:23.532Z,11.17
2018-12-22T07:39:51.893Z,11.23
2018-12-22T07:42:20.312Z,11.07
2018-12-22T07:44:48.643Z,11.07
2018-12-22T07:47:17.095Z,11.01
2018-12-22T07:49:45.526Z,10.86
2018-12-22T07:52:13.903Z,10.82
2018-12-22T07:54:43.697Z,10.85
2018-12-22T07:57:12.534Z,10.90
2018-12-22T07:59:42.189Z,10.84
2018-12-22T08:02:10.542Z,10.75
2018-12-22T08:04:39.451Z,10.82
2018-12-22T08:07:07.882Z,10.60
2018-12-22T08:09:36.229Z,10.74
2018-12-22T08:12:04.567Z,10.82
2018-12-22T08:14:33.110Z,10.95
2018-12-22T08:17:01.462Z,10.80
2018-12-22T08:19:30.706Z,10.80
2018-12-22T08:21:59.874Z,10.78
2018-12-22T08:24:28.379Z,10.81
2018-12-22T08:26:56.707Z,10.87
2018-12-22T08:29:28.118Z,10.81
2018-12-22T08:31:56.492Z,11.01
2018-12-22T08:34:25.035Z,11.03
2018-12-22T08:36:54.470Z,11.11
2018-12-22T08:39:23.115Z,11.21
2018-12-22T08:41:51.493Z,11.22
2018-12-22T08:44:19.892Z,11.14
2018-12-22T08:46:49.374Z,11.15
2018-12-22T08:49:17.807Z,11.25
2018-12-22T08:51:46.197Z,11.26
2018-12-22T08:54:14.623Z,11.28
2018-12-22T08:56:44.414Z,11.45
2018-12-22T08:59:13.121Z,11.50
2018-12-22T09:01:41.515Z,11.55
2018-12-22T09:04:10.391Z,11.46
2018-12-22T09:06:38.747Z,11.30
2018-12-22T09:09:10.170Z,11.40
2018-12-22T09:11:38.608Z,11.44
2018-12-22T09:14:06.979Z,11.34
2018-12-22T09:16:35.321Z,11.43
2018-12-22T09:19:03.671Z,11.24
2018-12-22T09:21:32.147Z,11.29
2018-12-22T09:24:00.593Z,11.28
2018-12-22T09:26:28.984Z,11.37
2018-12-22T09:28:57.320Z,11.45
2018-12-22T09:31:25.676Z,11.52
2018-12-22T09:33:54.030Z,11.63
2018-12-22T09:36:22.432Z,11.66
2018-12-22T09:38:50.772Z,11.57
2018-12-22T09:41:19.147Z,11.77
2018-12-22T09:43:47.583Z,11.73
2018-12-22T09:46:15.957Z,11.59
2018-12-22T09:48:44.332Z,11.68
2018-12-22T09:51:12.674Z,11.70
2018-12-22T09:53:41.082Z,11.74
2018-12-22T09:56:09.488Z,11.90
2018-12-22T09:58:37.991Z,11.98
2018-12-22T10:01:09.438Z,12.06
2018-12-22T10:03:37.458Z,12.19
2018-12-22T10:06:06.885Z,12.27
2018-12-22T10:08:35.216Z,12.36
2018-12-22T10:11:03.547Z,12.26
2018-12-22T10:13:31.879Z,11.99
2018-12-22T10:16:00.266Z,12.27
2018-12-22T10:18:28.721Z,12.20
2018-12-22T10:20:57.072Z,12.21
2018-12-22T10:23:25.493Z,12.09
2018-12-22T10:25:53.839Z,12.19
2018-12-22T10:28:22.175Z,11.79
2018-12-22T10:30:50.514Z,11.67
2018-12-22T10:33:18.911Z,11.53
2018-12-22T10:35:48.204Z,11.61
2018-12-22T10:38:16.564Z,11.54
2018-12-22T10:40:45.040Z,11.38
2018-12-22T10:43:13.353Z,11.37
2018-12-22T10:45:41.662Z,11.29
2018-12-22T10:48:10.028Z,11.04
2018-12-22T10:50:38.353Z,11.01
2018-12-22T10:53:06.707Z,11.10
2018-12-22T10:55:35.129Z,11.22
2018-12-22T10:58:03.580Z,11.35
2018-12-22T11:00:32.344Z,11.26
2018-12-22T11:03:00.898Z,11.65
2018-12-22T11:05:29.397Z,11.75
2018-12-22T11:07:57.804Z,11.75
2018-12-22T11:10:26.177Z,11.53
2018-12-22T11:12:54.528Z,11.54
2018-12-22T11:15:22.945Z,11.63
2018-12-22T11:17:51.295Z,11.77
2018-12-22T11:20:19.615Z,11.85
2018-12-22T11:22:47.979Z,11.97
2018-12-22T11:25:16.432Z,12.09
2018-12-22T11:27:44.841Z,12.17
2018-12-22T11:30:20.351Z,12.37
2018-12-22T11:32:48.749Z,12.18
2018-12-22T11:35:17.109Z,12.18
2018-12-22T11:37:45.488Z,12.08
2018-12-22T11:40:13.863Z,11.75
2018-12-22T11:42:47.636Z,11.96
2018-12-22T11:45:12.702Z,12.09
2018-12-22T11:47:44.845Z,12.24
2018-12-22T11:50:20.014Z,12.25
2018-12-22T11:52:48.408Z,12.02
2018-12-22T11:55:16.744Z,12.01
2018-12-22T11:57:45.173Z,11.96
2018-12-22T12:00:13.527Z,11.99
2018-12-22T12:02:41.868Z,12.12
2018-12-22T12:05:11.219Z,12.17
2018-12-22T12:07:39.641Z,12.35
2018-12-22T12:10:10.094Z,12.31
2018-12-22T12:12:38.440Z,12.11
2018-12-22T12:15:14.155Z,11.81
2018-12-22T12:17:57.162Z,12.02
2018-12-22T12:20:25.570Z,12.28
2018-12-22T12:22:54.021Z,12.28
2018-12-22T12:25:22.375Z,12.26
2018-12-22T12:27:50.712Z,12.22
2018-12-22T12:30:19.096Z,12.33
2018-12-22T12:32:47.467Z,12.45
2018-12-22T12:35:15.815Z,12.43
2018-12-22T12:37:44.259Z,12.50
2018-12-22T12:40:13.506Z,12.44
2018-12-22T12:42:41.857Z,12.53
2018-12-22T12:45:13.889Z,12.67
2018-12-22T12:47:44.760Z,12.57
2018-12-22T12:50:21.555Z,12.51
2018-12-22T12:52:49.897Z,12.62
2018-12-22T12:55:18.260Z,12.50
2018-12-22T12:57:46.753Z,12.57
2018-12-22T13:00:20.059Z,12.52
2018-12-22T13:02:48.397Z,12.62
2018-12-22T13:05:16.748Z,12.52
2018-12-22T13:07:45.148Z,12.47
2018-12-22T13:10:13.602Z,12.30
2018-12-22T13:12:55.628Z,12.66
2018-12-22T13:15:24.111Z,13.02
2018-12-22T13:17:52.444Z,13.29
2018-12-22T13:20:21.725Z,13.58
2018-12-22T13:22:50.270Z,13.49
2018-12-22T13:25:18.733Z,13.56
2018-12-22T13:27:47.245Z,13.35
2018-12-22T13:30:15.622Z,13.32
2018-12-22T13:32:43.970Z,13.02
2018-12-22T13:35:12.342Z,13.25
2018-12-22T13:37:40.672Z,13.01
2018-12-22T13:40:11.874Z,12.94
2018-12-22T13:42:40.427Z,12.76
2018-12-22T13:45:11.848Z,12.63
2018-12-22T13:47:40.532Z,12.37
2018-12-22T13:50:12.972Z,12.26
2018-12-22T13:52:41.456Z,12.11
2018-12-22T13:55:10.622Z,12.08
2018-12-22T13:57:43.747Z,12.20
2018-12-22T14:00:20.991Z,12.27
2018-12-22T14:02:49.399Z,12.23
2018-12-22T14:05:25.695Z,12.31
2018-12-22T14:07:54.054Z,12.27
2018-12-22T14:10:23.815Z,12.21
2018-12-22T14:12:52.207Z,12.41
2018-12-22T14:15:23.568Z,12.35
2018-12-22T14:18:07.308Z,12.32
2018-12-22T14:20:36.412Z,12.54
2018-12-22T14:23:04.818Z,12.67
2018-12-22T14:25:33.199Z,12.41
2018-12-22T14:28:01.690Z,12.54
2018-12-22T14:30:30.026Z,12.23
2018-12-22T14:32:58.359Z,11.96
2018-12-22T14:35:32.336Z,12.03
2018-12-22T14:38:00.701Z,11.86
2018-12-22T14:40:29.201Z,11.77
2018-12-22T14:42:57.531Z,11.93
2018-12-22T14:45:26.191Z,11.87
2018-12-22T14:47:54.557Z,11.88
2018-12-22T14:50:22.887Z,11.79
2018-12-22T14:52:51.216Z,11.88
2018-12-22T14:55:19.555Z,11.96
2018-12-22T14:57:58.319Z,12.11
2018-12-22T15:00:26.695Z,12.22
2018-12-22T15:02:55.062Z,12.41
2018-12-22T15:05:23.528Z,12.46
2018-12-22T15:07:51.859Z,12.50
2018-12-22T15:10:20.202Z,12.43
2018-12-22T15:12:49.705Z,12.28
2018-12-22T15:15:18.096Z,11.90
2018-12-22T15:17:46.582Z,12.11
2018-12-22T15:20:23.101Z,11.98
2018-12-22T15:22:51.498Z,11.87
2018-12-22T15:25:19.908Z,11.79
2018-12-22T15:27:48.307Z,11.69
2018-12-22T15:30:16.659Z,11.91
2018-12-22T15:32:54.166Z,11.69
2018-12-22T15:35:15.816Z,11.67
2018-12-22T15:37:44.172Z,11.53
2018-12-22T15:40:12.552Z,11.52
2018-12-22T15:42:40.962Z,11.37
2018-12-22T15:45:16.181Z,11.27
2018-12-22T15:47:46.063Z,11.28
2018-12-22T15:50:34.437Z,11.24
2018-12-22T15:53:02.821Z,11.18
2018-12-22T15:55:31.224Z,11.11
2018-12-22T15:57:59.708Z,10.99
2018-12-22T16:00:28.107Z,11.00
2018-12-22T16:02:56.534Z,10.91
2018-12-22T16:05:24.985Z,10.94
2018-12-22T16:07:53.306Z,10.94
2018-12-22T16:10:22.954Z,10.88
2018-12-22T16:12:51.524Z,11.04
2018-12-22T16:15:24.483Z,11.03
2018-12-22T16:17:52.823Z,10.98
2018-12-22T16:20:21.170Z,10.76
2018-12-22T16:22:56.176Z,10.63
2018-12-22T16:25:24.590Z,10.62
2018-12-22T16:27:58.651Z,10.55
2018-12-22T16:30:36.422Z,10.54
2018-12-22T16:33:04.792Z,10.45
2018-12-22T16:35:33.123Z,10.44
2018-12-22T16:38:01.480Z,10.50
2018-12-22T16:40:29.866Z,10.60
2018-12-22T16:42:58.225Z,10.68
2018-12-22T16:45:27.095Z,10.55
2018-12-22T16:47:56.453Z,10.55
2018-12-22T16:50:25.184Z,10.47
2018-12-22T16:52:53.541Z,10.18
2018-12-22T16:55:21.952Z,10.43
2018-12-22T16:58:07.488Z,10.34
2018-12-22T17:03:38.562Z,10.02
2018-12-22T17:06:09.187Z,9.98
2018-12-22T17:08:37.575Z,9.94
2018-12-22T17:11:06.199Z,10.06
2018-12-22T17:13:34.550Z,10.10
2018-12-22T17:16:03.131Z,10.03
2018-12-22T17:18:31.785Z,10.06
2018-12-22T17:21:07.081Z,10.04
2018-12-22T17:23:47.096Z,10.06
2018-12-22T17:26:15.471Z,9.99
2018-12-22T17:28:43.848Z,10.03
2018-12-22T17:31:12.202Z,10.06
2018-12-22T17:33:40.531Z,9.80
2018-12-22T17:36:08.987Z,9.91
2018-12-22T17:38:38.248Z,9.98
2018-12-22T17:41:06.779Z,9.84
2018-12-22T17:43:36.915Z,9.77
2018-12-22T17:46:07.527Z,9.67
2018-12-22T17:48:35.863Z,9.67
2018-12-22T17:51:04.389Z,9.83
2018-12-22T17:53:33.366Z,9.70
2018-12-22T17:56:01.675Z,9.80
2018-12-22T17:58:30.274Z,9.70
2018-12-22T18:00:58.643Z,9.78
2018-12-22T18:03:27.625Z,9.79
2018-12-22T18:05:56.184Z,9.95
2018-12-22T18:08:24.581Z,10.09
2018-12-22T18:10:53.410Z,9.90
2018-12-22T18:13:21.834Z,9.85
2018-12-22T18:15:50.948Z,9.81
2018-12-22T18:18:19.907Z,9.90
2018-12-22T18:20:48.298Z,9.95
2018-12-22T18:23:16.767Z,9.80
2018-12-22T18:25:45.135Z,9.89
2018-12-22T18:28:13.508Z,9.88
2018-12-22T18:30:42.206Z,9.87
2018-12-22T18:33:12.018Z,9.94
2018-12-22T18:35:40.685Z,9.88
2018-12-22T18:38:09.402Z,9.84
2018-12-22T18:40:37.838Z,10.02
2018-12-22T18:43:07.110Z,10.01
2018-12-22T18:45:36.010Z,9.84
2018-12-22T18:48:04.725Z,9.76
2018-12-22T18:50:33.233Z,9.58
2018-12-22T18:53:01.593Z,9.65
2018-12-22T18:55:32.603Z,9.56
2018-12-22T18:58:00.959Z,9.24
2018-12-22T19:00:29.451Z,9.05
2018-12-22T19:02:57.907Z,8.91
2018-12-22T19:05:26.370Z,8.79
2018-12-22T19:07:56.250Z,9.00
2018-12-22T19:10:31.274Z,8.91
2018-12-22T19:13:00.670Z,8.78
2018-12-22T19:15:29.274Z,8.64
2018-12-22T19:17:57.684Z,8.74
2018-12-22T19:20:32.720Z,8.52
2018-12-22T19:23:01.064Z,8.46
2018-12-22T19:25:29.407Z,8.40
2018-12-22T19:27:57.751Z,8.45
2018-12-22T19:30:26.106Z,8.63
2018-12-22T19:32:54.502Z,8.67
2018-12-22T19:35:22.925Z,8.81
2018-12-22T19:37:51.301Z,8.73
2018-12-22T19:40:19.743Z,8.79
2018-12-22T19:42:48.144Z,8.72
2018-12-22T19:45:16.523Z,8.83
2018-12-22T19:47:44.871Z,8.83
2018-12-22T19:50:13.495Z,8.98
2018-12-22T19:52:41.895Z,9.02
2018-12-22T19:55:10.256Z,8.86
2018-12-22T19:57:41.922Z,8.87
2018-12-22T20:00:10.459Z,8.83
2018-12-22T20:02:38.919Z,8.93
2018-12-22T20:05:07.525Z,8.79
2018-12-22T20:07:36.272Z,8.65
2018-12-22T20:10:05.009Z,8.63
2018-12-22T20:12:33.341Z,8.80
2018-12-22T20:15:01.721Z,8.90
2018-12-22T20:17:30.163Z,8.73
2018-12-22T20:19:58.575Z,8.70
2018-12-22T20:22:26.943Z,8.64
2018-12-22T20:24:55.509Z,8.84
2018-12-22T20:27:23.887Z,9.07
2018-12-22T20:29:52.783Z,9.03
2018-12-22T20:32:21.391Z,9.22
2018-12-22T20:34:49.899Z,9.38
2018-12-22T20:37:18.443Z,9.36
2018-12-22T20:39:46.963Z,9.49
2018-12-22T20:42:15.363Z,9.67
2018-12-22T20:44:43.784Z,9.72
2018-12-22T20:47:12.548Z,9.68
2018-12-22T20:49:41.018Z,9.49
2018-12-22T20:52:09.604Z,9.59
2018-12-22T20:54:38.141Z,9.65
2018-12-22T20:57:07.201Z,9.64
2018-12-22T20:59:35.617Z,9.37
2018-12-22T21:02:04.160Z,9.33
2018-12-22T21:04:32.732Z,9.19
2018-12-22T21:07:01.463Z,9.13
2018-12-22T21:09:29.826Z,8.99
2018-12-22T21:11:58.349Z,8.95
2018-12-22T21:14:26.927Z,9.05
2018-12-22T21:16:55.326Z,8.94
2018-12-22T21:19:28.684Z,8.92
2018-12-22T21:21:58.400Z,8.85
2018-12-22T21:24:28.300Z,8.62
2018-12-22T21:26:58.070Z,8.71
2018-12-22T21:29:27.085Z,8.75
2018-12-22T21:31:55.705Z,8.73
2018-12-22T21:34:28.267Z,8.87
2018-12-22T21:36:54.646Z,8.74
2018-12-22T21:39:23.737Z,8.77
2018-12-22T21:41:52.794Z,8.90
2018-12-22T21:44:22.191Z,8.95
2018-12-22T21:46:52.189Z,8.89
2018-12-22T21:49:21.303Z,9.03
2018-12-22T21:51:49.776Z,9.46
2018-12-22T21:54:18.996Z,9.34
2018-12-22T21:56:47.350Z,9.17
2018-12-22T21:59:17.081Z,9.01
2018-12-22T22:01:46.676Z,9.10
2018-12-22T22:04:16.431Z,9.03
2018-12-22T22:06:48.375Z,9.11
2018-12-22T22:09:19.362Z,9.01
2018-12-22T22:11:47.824Z,8.94
2018-12-22T22:14:16.194Z,9.01
2018-12-22T22:16:44.697Z,8.99
2018-12-22T22:19:14.566Z,9.08
2018-12-22T22:21:42.968Z,9.08
2018-12-22T22:24:11.326Z,9.14
2018-12-22T22:26:39.683Z,9.46
2018-12-22T22:29:08.113Z,9.46
2018-12-22T22:31:36.466Z,9.52
2018-12-22T22:34:04.912Z,9.53
2018-12-22T22:36:33.355Z,9.33
2018-12-22T22:39:01.710Z,9.53
2018-12-22T22:41:33.830Z,9.48
2018-12-22T22:44:02.281Z,9.54
2018-12-22T22:46:30.824Z,9.63
2018-12-22T22:48:59.179Z,9.64
2018-12-22T22:51:27.511Z,9.83
2018-12-22T22:53:55.951Z,9.63
2018-12-22T22:56:24.448Z,9.70
2018-12-22T22:58:52.849Z,9.63
2018-12-22T23:01:21.249Z,9.72
2018-12-22T23:03:49.607Z,9.56
2018-12-22T23:06:18.111Z,9.46
2018-12-22T23:08:46.547Z,9.32
2018-12-22T23:11:14.946Z,9.29
2018-12-22T23:13:43.319Z,9.01
2018-12-22T23:16:11.689Z,8.85
2018-12-22T23:18:40.052Z,8.94
2018-12-22T23:21:08.440Z,8.97
2018-12-22T23:23:36.848Z,9.13
2018-12-22T23:26:05.219Z,9.11
2018-12-22T23:28:33.683Z,9.24
2018-12-22T23:31:02.055Z,9.25
2018-12-22T23:33:30.456Z,9.42
2018-12-22T23:35:58.822Z,9.40
2018-12-22T23:38:27.132Z,9.32
2018-12-22T23:40:55.482Z,9.19
2018-12-22T23:43:23.846Z,9.19
2018-12-22T23:45:52.185Z,9.25
2018-12-22T23:48:20.732Z,9.24
2018-12-22T23:50:49.063Z,9.26
2018-12-22T23:53:17.465Z,9.22
2018-12-22T23:55:45.878Z,9.40
2018-12-22T23:58:14.245Z,9.54
